createdAt,value
2023-03-23T04:14:16.786Z,0.52
2023-03-23T04:18:16.681Z,0.51
2023-03-23T04:22:16.674Z,0.52
2023-03-23T04:26:16.664Z,0.51
2023-03-23T04:30:16.623Z,0.52
2023-03-23T04:34:16.585Z,0.52
2023-03-23T04:38:16.554Z,0.52
2023-03-23T04:42:16.509Z,0.53
2023-03-23T04:46:16.480Z,0.52
2023-03-23T04:50:16.435Z,0.52
2023-03-23T04:54:16.373Z,0.51
2023-03-23T04:58:16.343Z,0.51
2023-03-23T05:02:16.306Z,0.51
2023-03-23T05:06:16.191Z,0.50
2023-03-23T05:10:16.109Z,0.52
2023-03-23T05:14:17.010Z,0.53
2023-03-23T05:18:15.887Z,0.54
2023-03-23T05:22:15.785Z,0.52
2023-03-23T05:26:15.673Z,0.51
2023-03-23T05:30:15.569Z,0.52
2023-03-23T05:34:15.476Z,0.51
2023-03-23T05:38:15.407Z,0.50
2023-03-23T05:42:15.362Z,0.51
2023-03-23T05:46:15.267Z,0.51
2023-03-23T05:50:15.209Z,0.51
2023-03-23T05:54:15.139Z,0.52
2023-03-23T05:58:15.072Z,0.51
2023-03-23T06:02:15.032Z,0.51
2023-03-23T06:06:14.985Z,0.51
2023-03-23T06:10:14.911Z,0.51
2023-03-23T06:14:14.858Z,0.52
2023-03-23T06:18:14.845Z,0.52
2023-03-23T06:22:14.799Z,0.52
2023-03-23T06:26:14.794Z,0.51
2023-03-23T06:30:14.883Z,0.52
2023-03-23T06:34:15.062Z,0.61
2023-03-23T06:38:15.241Z,0.77
2023-03-23T06:42:15.427Z,0.98
2023-03-23T06:46:15.489Z,1.18
2023-03-23T06:50:15.543Z,1.28
2023-03-23T06:54:15.591Z,1.56
2023-03-23T06:58:15.611Z,1.90
2023-03-23T07:02:15.702Z,2.62
2023-03-23T07:06:15.553Z,3.21
2023-03-23T07:10:15.453Z,3.75
2023-03-23T07:14:15.317Z,5.23
2023-03-23T07:18:15.174Z,6.37
2023-03-23T07:22:15.028Z,6.52
2023-03-23T07:26:14.861Z,7.07
2023-03-23T07:30:14.813Z,2.01
2023-03-23T07:34:14.690Z,1.22
2023-03-23T07:38:14.786Z,0.62
2023-03-23T07:42:14.469Z,0.48
2023-03-23T07:46:14.329Z,0.55
2023-03-23T07:50:14.194Z,0.72
2023-03-23T07:54:14.043Z,0.85
2023-03-23T07:58:13.951Z,0.99
2023-03-23T08:02:13.719Z,1.09
2023-03-23T08:06:13.565Z,1.08
2023-03-23T08:10:13.360Z,1.05
2023-03-23T08:14:13.906Z,1.10
2023-03-23T08:18:13.003Z,0.77
2023-03-23T08:22:12.836Z,0.85
2023-03-23T08:26:12.660Z,0.92
2023-03-23T08:30:12.479Z,1.09
2023-03-23T08:34:13.862Z,1.20
2023-03-23T08:38:12.125Z,1.38
2023-03-23T08:42:11.960Z,1.67
2023-03-23T08:46:11.771Z,1.98
2023-03-23T08:50:11.648Z,2.39
2023-03-23T08:54:11.435Z,2.45
2023-03-23T08:58:11.249Z,2.65
2023-03-23T09:02:11.070Z,2.83
2023-03-23T09:06:11.496Z,3.77
2023-03-23T09:10:11.103Z,3.39
2023-03-23T09:14:11.230Z,2.71
2023-03-23T09:18:11.204Z,2.52
2023-03-23T09:22:11.117Z,2.35
2023-03-23T09:26:11.124Z,2.06
2023-03-23T09:30:11.147Z,0.37
2023-03-23T09:34:11.164Z,0.42
2023-03-23T09:38:11.282Z,0.86
2023-03-23T09:42:11.333Z,1.61
2023-03-23T09:46:11.596Z,2.36
2023-03-23T09:50:11.155Z,3.16
2023-03-23T09:54:11.114Z,4.01
2023-03-23T09:58:11.110Z,5.07
2023-03-23T10:02:11.132Z,6.62
2023-03-23T10:06:11.062Z,7.22
2023-03-23T10:10:11.202Z,9.25
2023-03-23T10:14:11.222Z,10.36
2023-03-23T10:18:11.292Z,11.03
2023-03-23T10:22:11.331Z,11.04
2023-03-23T10:26:11.397Z,12.49
2023-03-23T10:30:11.470Z,12.82
2023-03-23T10:34:11.471Z,12.25
2023-03-23T10:38:11.535Z,13.22
2023-03-23T10:42:11.628Z,18.19
2023-03-23T10:46:15.526Z,24.33
2023-03-23T10:50:12.518Z,26.62
2023-03-23T10:54:11.361Z,32.38
2023-03-23T10:58:11.633Z,37.23
2023-03-23T11:02:15.643Z,47.11
2023-03-23T11:06:12.132Z,51.51
2023-03-23T11:10:11.139Z,51.69
2023-03-23T11:14:10.569Z,50.95
2023-03-23T11:18:10.558Z,49.07
2023-03-23T11:22:10.606Z,49.26
2023-03-23T11:26:10.404Z,47.19
2023-03-23T11:30:10.219Z,46.32
2023-03-23T11:34:10.034Z,43.64
2023-03-23T11:38:09.851Z,42.21
2023-03-23T11:42:09.814Z,39.71
2023-03-23T11:46:09.434Z,38.28
2023-03-23T11:50:09.227Z,36.35
2023-03-23T13:02:05.982Z,17.53
2023-03-23T13:30:05.924Z,13.98
2023-03-23T13:34:05.956Z,13.52
2023-03-23T13:38:05.976Z,13.24
2023-03-23T13:42:06.618Z,13.15
2023-03-23T13:46:06.089Z,12.66
2023-03-23T13:50:06.057Z,12.28
2023-03-23T13:54:06.101Z,11.94
2023-03-23T14:14:06.339Z,10.89
2023-03-23T14:18:06.384Z,10.43
2023-03-23T14:22:06.438Z,10.29
2023-03-23T14:26:06.713Z,10.03
2023-03-23T14:30:06.551Z,9.82
2023-03-23T14:34:06.713Z,9.73
2023-03-23T14:38:06.663Z,9.08
2023-03-23T14:42:06.722Z,9.36
2023-03-23T14:46:06.786Z,9.11
2023-03-23T14:50:06.897Z,8.94
2023-03-23T14:54:06.915Z,8.85
2023-03-23T15:06:07.124Z,8.38
2023-03-23T15:10:07.195Z,8.13
2023-03-23T15:14:07.373Z,7.97
2023-03-23T15:18:07.373Z,7.95
2023-03-23T15:26:07.554Z,7.74
2023-03-23T15:34:07.738Z,7.25
2023-03-23T15:58:08.286Z,6.62
2023-03-23T16:34:09.358Z,5.82
2023-03-23T16:38:09.487Z,5.74
2023-03-23T16:54:09.512Z,5.43
2023-03-23T16:58:17.152Z,5.27
2023-03-23T17:26:08.798Z,4.95
2023-03-23T17:30:08.637Z,4.87
2023-03-23T17:34:08.550Z,4.78
2023-03-23T17:38:08.469Z,4.79
2023-03-23T17:42:08.466Z,4.76
2023-03-23T17:58:08.143Z,4.55
2023-03-23T18:06:08.226Z,4.59
2023-03-23T18:22:08.835Z,4.18
2023-03-23T18:38:08.234Z,3.94
2023-03-23T19:14:07.512Z,3.62
2023-03-23T19:22:08.590Z,3.53
2023-03-23T19:38:08.095Z,3.43
2023-03-23T19:42:08.018Z,3.35
2023-03-23T19:50:07.957Z,3.30
2023-03-23T19:54:07.864Z,3.29
2023-03-23T20:18:07.551Z,3.05
2023-03-23T20:22:07.522Z,3.03
2023-03-23T20:26:07.510Z,2.95
2023-03-23T20:30:07.421Z,2.95
2023-03-23T20:46:07.171Z,2.80
2023-03-23T20:54:07.161Z,2.81
2023-03-23T20:58:07.082Z,2.73
2023-03-23T21:02:07.098Z,2.74
2023-03-23T21:06:06.946Z,2.71
2023-03-23T21:10:06.850Z,2.70
2023-03-23T21:14:06.795Z,2.60
2023-03-23T21:18:06.795Z,2.57
2023-03-23T21:22:06.756Z,2.55
2023-03-23T21:26:06.821Z,2.55
2023-03-23T21:30:06.926Z,2.50
2023-03-23T21:34:06.952Z,2.45
2023-03-23T21:38:07.004Z,2.51
2023-03-23T21:42:07.179Z,2.43
2023-03-23T21:46:07.108Z,2.40
2023-03-23T21:50:07.202Z,2.37
2023-03-23T21:54:07.178Z,2.38
2023-03-23T21:58:07.158Z,2.33
2023-03-23T22:02:07.225Z,2.34
2023-03-23T22:06:07.262Z,2.32
2023-03-23T22:10:07.446Z,2.29
2023-03-23T22:14:07.583Z,2.30
2023-03-23T22:18:07.653Z,2.25
2023-03-23T22:22:07.661Z,2.25
2023-03-23T22:26:07.634Z,2.17
2023-03-23T22:30:07.641Z,2.19
2023-03-23T22:34:07.699Z,2.15
2023-03-23T22:38:07.753Z,2.10
2023-03-23T22:42:07.753Z,2.12
2023-03-23T22:46:08.011Z,2.09
2023-03-23T22:50:07.888Z,2.12
2023-03-23T22:54:07.955Z,2.05
2023-03-23T22:58:08.033Z,2.04
2023-03-23T23:02:08.122Z,1.99
2023-03-23T23:06:08.051Z,1.96
2023-03-23T23:10:08.131Z,1.97
2023-03-23T23:14:08.232Z,1.96
2023-03-23T23:18:08.255Z,1.92
2023-03-23T23:22:18.542Z,1.93
2023-03-23T23:38:07.968Z,1.85
2023-03-23T23:42:07.873Z,1.85
2023-03-23T23:46:07.904Z,1.83
2023-03-23T23:50:07.805Z,1.82
2023-03-23T23:54:07.734Z,1.81
2023-03-23T23:58:07.680Z,1.80
